sensor_id;sensor_type;location;lat;lon;timestamp;pressure;altitude;pressure_sealevel;temperature;humidity
48874;BME280;66155;46.204;5.220;2023-04-30T00:04:30;98651.22;;;12.62;66.03
48874;BME280;66155;46.204;5.220;2023-04-30T00:09:30;98638.94;;;12.58;65.88
48874;BME280;66155;46.204;5.220;2023-04-30T00:14:30;98628.75;;;12.51;66.00
48874;BME280;66155;46.204;5.220;2023-04-30T00:19:31;98637.88;;;12.43;66.19
48874;BME280;66155;46.204;5.220;2023-04-30T00:24:31;98630.03;;;12.43;66.03
48874;BME280;66155;46.204;5.220;2023-04-30T00:29:32;98629.78;;;12.40;65.98
48874;BME280;66155;46.204;5.220;2023-04-30T00:34:32;98633.16;;;12.45;65.49
48874;BME280;66155;46.204;5.220;2023-04-30T00:39:33;98627.44;;;12.48;65.19
48874;BME280;66155;46.204;5.220;2023-04-30T00:44:33;98622.19;;;12.38;66.07
48874;BME280;66155;46.204;5.220;2023-04-30T00:49:33;98619.31;;;12.34;65.68
48874;BME280;66155;46.204;5.220;2023-04-30T00:54:34;98624.25;;;12.26;66.32
48874;BME280;66155;46.204;5.220;2023-04-30T00:59:35;98626.59;;;12.27;65.75
48874;BME280;66155;46.204;5.220;2023-04-30T01:04:37;98614.06;;;12.19;65.97
48874;BME280;66155;46.204;5.220;2023-04-30T01:09:37;98624.47;;;12.04;66.82
48874;BME280;66155;46.204;5.220;2023-04-30T01:15:03;98629.59;;;11.88;67.87
48874;BME280;66155;46.204;5.220;2023-04-30T01:20:08;98616.00;;;11.81;67.17
48874;BME280;66155;46.204;5.220;2023-04-30T01:30:22;98609.91;;;11.60;68.13
48874;BME280;66155;46.204;5.220;2023-04-30T01:46:23;98597.56;;;11.40;69.40
48874;BME280;66155;46.204;5.220;2023-04-30T01:51:34;98600.16;;;11.35;69.90
48874;BME280;66155;46.204;5.220;2023-04-30T01:56:48;98591.00;;;11.27;69.75
48874;BME280;66155;46.204;5.220;2023-04-30T02:01:52;98593.56;;;11.22;70.44
48874;BME280;66155;46.204;5.220;2023-04-30T02:06:53;98604.25;;;11.20;70.07
48874;BME280;66155;46.204;5.220;2023-04-30T02:11:53;98621.69;;;11.15;70.67
48874;BME280;66155;46.204;5.220;2023-04-30T02:16:54;98634.72;;;11.15;71.19
48874;BME280;66155;46.204;5.220;2023-04-30T02:21:54;98631.88;;;11.16;71.40
48874;BME280;66155;46.204;5.220;2023-04-30T02:26:55;98634.44;;;11.11;71.04
48874;BME280;66155;46.204;5.220;2023-04-30T02:31:57;98633.97;;;11.14;71.25
48874;BME280;66155;46.204;5.220;2023-04-30T02:36:58;98638.84;;;11.06;71.67
48874;BME280;66155;46.204;5.220;2023-04-30T02:41:59;98631.81;;;11.06;71.64
48874;BME280;66155;46.204;5.220;2023-04-30T02:47:00;98620.06;;;11.03;71.73
48874;BME280;66155;46.204;5.220;2023-04-30T02:52:00;98624.44;;;10.93;71.93
48874;BME280;66155;46.204;5.220;2023-04-30T02:57:01;98629.50;;;10.77;72.65
48874;BME280;66155;46.204;5.220;2023-04-30T03:02:01;98626.63;;;10.74;72.72
48874;BME280;66155;46.204;5.220;2023-04-30T03:07:02;98627.88;;;10.71;72.64
48874;BME280;66155;46.204;5.220;2023-04-30T03:12:02;98623.00;;;10.75;72.56
48874;BME280;66155;46.204;5.220;2023-04-30T03:17:03;98623.72;;;10.70;72.58
48874;BME280;66155;46.204;5.220;2023-04-30T03:22:03;98621.44;;;10.79;71.63
48874;BME280;66155;46.204;5.220;2023-04-30T03:27:04;98623.81;;;10.80;71.68
48874;BME280;66155;46.204;5.220;2023-04-30T03:32:04;98618.56;;;10.75;71.77
48874;BME280;66155;46.204;5.220;2023-04-30T03:37:05;98626.91;;;10.77;71.92
48874;BME280;66155;46.204;5.220;2023-04-30T03:42:05;98621.53;;;10.89;71.34
48874;BME280;66155;46.204;5.220;2023-04-30T03:47:06;98620.19;;;10.87;71.12
48874;BME280;66155;46.204;5.220;2023-04-30T03:52:06;98622.75;;;10.81;71.47
48874;BME280;66155;46.204;5.220;2023-04-30T03:57:07;98623.88;;;10.91;70.85
48874;BME280;66155;46.204;5.220;2023-04-30T04:02:09;98632.50;;;10.91;70.67
48874;BME280;66155;46.204;5.220;2023-04-30T04:07:10;98629.06;;;10.86;70.65
48874;BME280;66155;46.204;5.220;2023-04-30T04:12:10;98632.22;;;10.88;71.10
48874;BME280;66155;46.204;5.220;2023-04-30T04:17:11;98636.97;;;11.01;70.40
48874;BME280;66155;46.204;5.220;2023-04-30T04:22:11;98632.56;;;11.01;70.44
48874;BME280;66155;46.204;5.220;2023-04-30T04:27:12;98625.03;;;11.05;70.37
48874;BME280;66155;46.204;5.220;2023-04-30T04:32:12;98619.84;;;11.10;70.42
48874;BME280;66155;46.204;5.220;2023-04-30T04:37:13;98616.50;;;11.20;70.07
48874;BME280;66155;46.204;5.220;2023-04-30T04:42:15;98622.25;;;11.22;69.80
48874;BME280;66155;46.204;5.220;2023-04-30T04:47:19;98622.59;;;11.36;69.34
48874;BME280;66155;46.204;5.220;2023-04-30T04:52:20;98628.03;;;11.29;70.03
48874;BME280;66155;46.204;5.220;2023-04-30T04:57:21;98620.72;;;11.26;69.70
48874;BME280;66155;46.204;5.220;2023-04-30T05:02:21;98628.00;;;11.24;69.88
48874;BME280;66155;46.204;5.220;2023-04-30T05:07:22;98627.53;;;11.32;69.44
48874;BME280;66155;46.204;5.220;2023-04-30T05:12:23;98624.72;;;11.39;69.30
48874;BME280;66155;46.204;5.220;2023-04-30T05:17:23;98623.16;;;11.43;69.36
48874;BME280;66155;46.204;5.220;2023-04-30T05:22:24;98624.81;;;11.59;68.53
48874;BME280;66155;46.204;5.220;2023-04-30T05:27:24;98626.69;;;11.79;68.59
48874;BME280;66155;46.204;5.220;2023-04-30T05:32:26;98627.50;;;11.80;68.17
48874;BME280;66155;46.204;5.220;2023-04-30T05:37:27;98629.25;;;11.59;68.82
48874;BME280;66155;46.204;5.220;2023-04-30T05:42:27;98621.94;;;11.61;68.65
48874;BME280;66155;46.204;5.220;2023-04-30T05:47:27;98623.81;;;11.66;68.29
48874;BME280;66155;46.204;5.220;2023-04-30T05:52:28;98638.19;;;11.73;68.33
48874;BME280;66155;46.204;5.220;2023-04-30T05:57:28;98628.72;;;11.57;69.08
48874;BME280;66155;46.204;5.220;2023-04-30T06:02:29;98632.84;;;11.53;68.67
48874;BME280;66155;46.204;5.220;2023-04-30T06:07:29;98641.50;;;11.53;69.01
48874;BME280;66155;46.204;5.220;2023-04-30T06:12:30;98640.50;;;11.65;68.73
48874;BME280;66155;46.204;5.220;2023-04-30T06:17:30;98643.09;;;11.65;68.55
48874;BME280;66155;46.204;5.220;2023-04-30T06:22:32;98647.09;;;11.88;67.98
48874;BME280;66155;46.204;5.220;2023-04-30T06:27:32;98644.59;;;12.03;67.69
48874;BME280;66155;46.204;5.220;2023-04-30T06:32:33;98644.91;;;12.32;66.68
48874;BME280;66155;46.204;5.220;2023-04-30T06:37:34;98630.31;;;12.62;66.56
48874;BME280;66155;46.204;5.220;2023-04-30T06:42:36;98648.38;;;12.79;65.64
48874;BME280;66155;46.204;5.220;2023-04-30T06:47:37;98645.75;;;12.74;65.79
48874;BME280;66155;46.204;5.220;2023-04-30T06:52:38;98653.84;;;12.93;65.80
48874;BME280;66155;46.204;5.220;2023-04-30T06:57:38;98656.19;;;12.89;65.71
48874;BME280;66155;46.204;5.220;2023-04-30T07:02:40;98663.25;;;12.84;65.83
48874;BME280;66155;46.204;5.220;2023-04-30T07:07:41;98663.25;;;12.79;66.16
48874;BME280;66155;46.204;5.220;2023-04-30T07:12:41;98663.81;;;12.76;66.35
48874;BME280;66155;46.204;5.220;2023-04-30T07:17:42;98664.31;;;12.98;65.58
48874;BME280;66155;46.204;5.220;2023-04-30T07:22:43;98664.56;;;12.97;65.47
48874;BME280;66155;46.204;5.220;2023-04-30T07:27:45;98670.81;;;13.11;65.32
48874;BME280;66155;46.204;5.220;2023-04-30T07:32:46;98678.69;;;13.21;64.80
48874;BME280;66155;46.204;5.220;2023-04-30T07:37:46;98679.47;;;13.32;64.79
48874;BME280;66155;46.204;5.220;2023-04-30T07:42:47;98692.56;;;13.22;64.49
48874;BME280;66155;46.204;5.220;2023-04-30T07:47:47;98700.41;;;13.06;64.89
48874;BME280;66155;46.204;5.220;2023-04-30T07:52:48;98692.03;;;12.94;65.32
48874;BME280;66155;46.204;5.220;2023-04-30T07:57:49;98705.63;;;12.91;65.67
48874;BME280;66155;46.204;5.220;2023-04-30T08:02:50;98703.03;;;13.06;65.22
48874;BME280;66155;46.204;5.220;2023-04-30T08:07:50;98707.19;;;13.07;65.31
48874;BME280;66155;46.204;5.220;2023-04-30T08:12:51;98706.41;;;13.07;64.90
48874;BME280;66155;46.204;5.220;2023-04-30T08:17:52;98710.06;;;13.11;65.06
48874;BME280;66155;46.204;5.220;2023-04-30T08:22:52;98716.09;;;13.17;65.24
48874;BME280;66155;46.204;5.220;2023-04-30T08:27:53;98725.75;;;13.21;65.00
48874;BME280;66155;46.204;5.220;2023-04-30T08:32:53;98721.06;;;13.23;65.34
48874;BME280;66155;46.204;5.220;2023-04-30T08:37:54;98732.84;;;13.26;64.75
48874;BME280;66155;46.204;5.220;2023-04-30T08:43:07;98732.06;;;13.41;65.01
48874;BME280;66155;46.204;5.220;2023-04-30T08:48:09;98725.97;;;13.86;63.76
48874;BME280;66155;46.204;5.220;2023-04-30T08:53:15;98743.91;;;14.19;62.91
48874;BME280;66155;46.204;5.220;2023-04-30T08:58:16;98733.94;;;14.26;63.13
48874;BME280;66155;46.204;5.220;2023-04-30T09:03:17;98735.78;;;14.20;63.17
48874;BME280;66155;46.204;5.220;2023-04-30T09:08:18;98744.44;;;14.21;63.25
48874;BME280;66155;46.204;5.220;2023-04-30T09:13:19;98740.00;;;14.21;63.06
48874;BME280;66155;46.204;5.220;2023-04-30T09:18:19;98742.06;;;14.19;63.49
48874;BME280;66155;46.204;5.220;2023-04-30T09:23:21;98746.03;;;14.17;62.75
48874;BME280;66155;46.204;5.220;2023-04-30T09:28:22;98743.63;;;14.31;62.81
48874;BME280;66155;46.204;5.220;2023-04-30T09:33:24;98749.38;;;14.33;62.82
48874;BME280;66155;46.204;5.220;2023-04-30T09:38:30;98745.78;;;14.73;61.79
48874;BME280;66155;46.204;5.220;2023-04-30T09:43:30;98749.13;;;14.84;61.48
48874;BME280;66155;46.204;5.220;2023-04-30T09:48:31;98746.63;;;15.03;61.26
48874;BME280;66155;46.204;5.220;2023-04-30T09:53:32;98745.50;;;15.44;60.06
48874;BME280;66155;46.204;5.220;2023-04-30T09:58:37;98746.94;;;15.31;60.57
48874;BME280;66155;46.204;5.220;2023-04-30T10:03:39;98736.88;;;15.38;60.07
48874;BME280;66155;46.204;5.220;2023-04-30T10:08:43;98737.69;;;15.38;60.07
48874;BME280;66155;46.204;5.220;2023-04-30T10:13:50;98752.25;;;15.20;60.52
48874;BME280;66155;46.204;5.220;2023-04-30T10:18:52;98737.34;;;15.16;60.67
48874;BME280;66155;46.204;5.220;2023-04-30T10:23:54;98746.88;;;15.07;61.16
48874;BME280;66155;46.204;5.220;2023-04-30T10:28:55;98742.81;;;15.19;60.60
48874;BME280;66155;46.204;5.220;2023-04-30T10:39:01;98735.88;;;15.34;60.30
48874;BME280;66155;46.204;5.220;2023-04-30T10:44:02;98735.16;;;15.28;60.27
48874;BME280;66155;46.204;5.220;2023-04-30T10:49:04;98733.06;;;15.25;60.15
48874;BME280;66155;46.204;5.220;2023-04-30T10:54:06;98731.78;;;15.23;60.37
48874;BME280;66155;46.204;5.220;2023-04-30T10:59:07;98728.91;;;15.48;59.94
48874;BME280;66155;46.204;5.220;2023-04-30T11:04:09;98720.88;;;15.93;59.15
48874;BME280;66155;46.204;5.220;2023-04-30T11:09:10;98723.34;;;16.46;58.37
48874;BME280;66155;46.204;5.220;2023-04-30T11:14:11;98717.75;;;16.91;57.73
48874;BME280;66155;46.204;5.220;2023-04-30T11:19:13;98720.63;;;17.41;56.88
48874;BME280;66155;46.204;5.220;2023-04-30T11:24:13;98723.03;;;17.24;57.29
48874;BME280;66155;46.204;5.220;2023-04-30T11:29:14;98724.69;;;17.34;56.70
48874;BME280;66155;46.204;5.220;2023-04-30T11:34:15;98726.47;;;17.38;56.71
48874;BME280;66155;46.204;5.220;2023-04-30T11:39:16;98723.66;;;17.48;56.69
48874;BME280;66155;46.204;5.220;2023-04-30T11:44:26;98726.31;;;17.62;55.87
48874;BME280;66155;46.204;5.220;2023-04-30T11:49:27;98721.34;;;17.75;56.28
48874;BME280;66155;46.204;5.220;2023-04-30T11:54:30;98720.28;;;17.90;55.60
48874;BME280;66155;46.204;5.220;2023-04-30T11:59:39;98717.72;;;17.71;55.70
48874;BME280;66155;46.204;5.220;2023-04-30T12:04:44;98719.28;;;17.72;55.40
48874;BME280;66155;46.204;5.220;2023-04-30T12:09:57;98716.47;;;17.82;54.27
48874;BME280;66155;46.204;5.220;2023-04-30T12:15:10;98716.94;;;18.12;54.10
48874;BME280;66155;46.204;5.220;2023-04-30T12:20:12;98716.06;;;18.53;53.98
48874;BME280;66155;46.204;5.220;2023-04-30T12:25:16;98710.16;;;18.70;53.64
48874;BME280;66155;46.204;5.220;2023-04-30T12:30:23;98712.63;;;18.66;53.32
48874;BME280;66155;46.204;5.220;2023-04-30T12:35:27;98705.81;;;19.10;52.46
48874;BME280;66155;46.204;5.220;2023-04-30T12:40:27;98703.06;;;19.55;51.58
48874;BME280;66155;46.204;5.220;2023-04-30T12:45:48;98697.94;;;19.59;50.19
48874;BME280;66155;46.204;5.220;2023-04-30T12:56:12;98697.34;;;18.99;51.97
48874;BME280;66155;46.204;5.220;2023-04-30T13:01:19;98706.78;;;19.23;51.72
48874;BME280;66155;46.204;5.220;2023-04-30T13:06:21;98702.66;;;19.71;51.22
48874;BME280;66155;46.204;5.220;2023-04-30T13:11:22;98697.00;;;20.12;50.40
48874;BME280;66155;46.204;5.220;2023-04-30T13:16:24;98696.13;;;20.43;49.39
48874;BME280;66155;46.204;5.220;2023-04-30T13:21:24;98699.22;;;20.37;49.49
48874;BME280;66155;46.204;5.220;2023-04-30T13:26:26;98699.25;;;20.54;49.46
48874;BME280;66155;46.204;5.220;2023-04-30T13:31:26;98695.16;;;20.48;49.83
48874;BME280;66155;46.204;5.220;2023-04-30T13:36:27;98698.72;;;20.08;50.32
48874;BME280;66155;46.204;5.220;2023-04-30T13:41:28;98697.16;;;19.99;50.50
48874;BME280;66155;46.204;5.220;2023-04-30T13:46:28;98687.06;;;20.27;50.33
48874;BME280;66155;46.204;5.220;2023-04-30T13:51:29;98690.13;;;21.16;48.67
48874;BME280;66155;46.204;5.220;2023-04-30T13:56:30;98674.44;;;21.79;47.51
48874;BME280;66155;46.204;5.220;2023-04-30T14:01:31;98669.00;;;22.69;46.13
48874;BME280;66155;46.204;5.220;2023-04-30T14:06:32;98663.03;;;23.54;43.64
48874;BME280;66155;46.204;5.220;2023-04-30T14:11:33;98657.19;;;23.49;42.97
48874;BME280;66155;46.204;5.220;2023-04-30T14:16:34;98654.94;;;23.26;44.67
48874;BME280;66155;46.204;5.220;2023-04-30T14:21:34;98657.38;;;23.19;44.31
48874;BME280;66155;46.204;5.220;2023-04-30T14:26:35;98646.06;;;23.96;43.03
48874;BME280;66155;46.204;5.220;2023-04-30T14:31:35;98648.06;;;23.75;43.27
48874;BME280;66155;46.204;5.220;2023-04-30T14:36:36;98638.03;;;24.08;43.12
48874;BME280;66155;46.204;5.220;2023-04-30T14:41:36;98635.88;;;24.26;42.73
48874;BME280;66155;46.204;5.220;2023-04-30T14:46:37;98635.56;;;24.16;41.86
48874;BME280;66155;46.204;5.220;2023-04-30T14:51:38;98640.00;;;23.22;42.45
48874;BME280;66155;46.204;5.220;2023-04-30T14:56:39;98651.44;;;23.34;42.43
48874;BME280;66155;46.204;5.220;2023-04-30T15:01:40;98642.41;;;23.88;42.19
48874;BME280;66155;46.204;5.220;2023-04-30T15:06:41;98635.44;;;24.24;42.03
48874;BME280;66155;46.204;5.220;2023-04-30T15:11:42;98643.56;;;24.16;42.24
48874;BME280;66155;46.204;5.220;2023-04-30T15:16:42;98639.59;;;24.09;42.11
48874;BME280;66155;46.204;5.220;2023-04-30T15:21:43;98632.00;;;23.71;42.42
48874;BME280;66155;46.204;5.220;2023-04-30T15:26:43;98629.59;;;24.19;42.08
48874;BME280;66155;46.204;5.220;2023-04-30T15:31:44;98622.69;;;24.74;41.34
48874;BME280;66155;46.204;5.220;2023-04-30T15:36:44;98624.94;;;25.20;40.46
48874;BME280;66155;46.204;5.220;2023-04-30T15:41:45;98615.25;;;26.18;39.20
48874;BME280;66155;46.204;5.220;2023-04-30T15:46:45;98611.56;;;28.25;35.26
48874;BME280;66155;46.204;5.220;2023-04-30T15:51:46;98598.84;;;30.66;32.81
48874;BME280;66155;46.204;5.220;2023-04-30T15:56:46;98593.31;;;32.55;30.59
48874;BME280;66155;46.204;5.220;2023-04-30T16:01:47;98582.34;;;35.79;27.20
48874;BME280;66155;46.204;5.220;2023-04-30T16:06:48;98578.00;;;37.01;25.95
48874;BME280;66155;46.204;5.220;2023-04-30T16:11:49;98580.31;;;38.64;24.20
48874;BME280;66155;46.204;5.220;2023-04-30T16:16:50;98578.53;;;37.54;25.01
48874;BME280;66155;46.204;5.220;2023-04-30T16:21:50;98588.25;;;37.68;24.39
48874;BME280;66155;46.204;5.220;2023-04-30T16:26:51;98593.44;;;34.81;25.74
48874;BME280;66155;46.204;5.220;2023-04-30T16:31:52;98584.06;;;36.59;24.39
48874;BME280;66155;46.204;5.220;2023-04-30T16:36:52;98577.63;;;38.25;22.01
48874;BME280;66155;46.204;5.220;2023-04-30T16:41:53;98575.09;;;38.05;22.29
48874;BME280;66155;46.204;5.220;2023-04-30T16:46:53;98579.00;;;35.92;23.72
48874;BME280;66155;46.204;5.220;2023-04-30T16:51:56;98574.47;;;36.54;22.62
48874;BME280;66155;46.204;5.220;2023-04-30T16:56:56;98569.25;;;37.94;21.42
48874;BME280;66155;46.204;5.220;2023-04-30T17:01:57;98558.47;;;38.41;21.04
48874;BME280;66155;46.204;5.220;2023-04-30T17:06:59;98558.66;;;38.60;20.53
48874;BME280;66155;46.204;5.220;2023-04-30T17:12:00;98551.94;;;38.26;21.04
48874;BME280;66155;46.204;5.220;2023-04-30T17:17:01;98555.31;;;37.79;21.38
48874;BME280;66155;46.204;5.220;2023-04-30T17:22:02;98554.56;;;34.44;24.35
48874;BME280;66155;46.204;5.220;2023-04-30T17:27:03;98558.78;;;33.26;25.56
48874;BME280;66155;46.204;5.220;2023-04-30T17:32:04;98565.75;;;32.82;25.85
48874;BME280;66155;46.204;5.220;2023-04-30T17:37:05;98558.06;;;33.22;25.58
48874;BME280;66155;46.204;5.220;2023-04-30T17:42:06;98562.00;;;33.82;24.91
48874;BME280;66155;46.204;5.220;2023-04-30T17:47:07;98568.53;;;33.12;25.76
48874;BME280;66155;46.204;5.220;2023-04-30T17:52:07;98564.97;;;31.33;27.13
48874;BME280;66155;46.204;5.220;2023-04-30T17:57:08;98565.81;;;30.73;27.83
48874;BME280;66155;46.204;5.220;2023-04-30T18:02:08;98573.88;;;29.45;29.23
48874;BME280;66155;46.204;5.220;2023-04-30T18:07:09;98570.56;;;28.18;30.89
48874;BME280;66155;46.204;5.220;2023-04-30T18:12:09;98576.38;;;26.40;32.66
48874;BME280;66155;46.204;5.220;2023-04-30T18:17:10;98588.06;;;24.90;34.68
48874;BME280;66155;46.204;5.220;2023-04-30T18:22:11;98589.31;;;23.80;36.03
48874;BME280;66155;46.204;5.220;2023-04-30T18:27:12;98590.38;;;23.13;37.11
48874;BME280;66155;46.204;5.220;2023-04-30T18:32:12;98599.09;;;22.56;38.07
48874;BME280;66155;46.204;5.220;2023-04-30T18:37:13;98597.88;;;21.99;39.24
48874;BME280;66155;46.204;5.220;2023-04-30T18:42:14;98600.81;;;21.55;39.75
48874;BME280;66155;46.204;5.220;2023-04-30T18:47:14;98598.31;;;21.20;40.53
48874;BME280;66155;46.204;5.220;2023-04-30T18:52:15;98596.94;;;20.76;41.47
48874;BME280;66155;46.204;5.220;2023-04-30T18:57:15;98606.00;;;20.40;42.36
48874;BME280;66155;46.204;5.220;2023-04-30T19:02:17;98607.38;;;20.11;42.88
48874;BME280;66155;46.204;5.220;2023-04-30T19:07:17;98609.25;;;19.84;43.51
48874;BME280;66155;46.204;5.220;2023-04-30T19:12:18;98616.50;;;19.70;43.88
48874;BME280;66155;46.204;5.220;2023-04-30T19:17:18;98614.31;;;19.54;44.54
48874;BME280;66155;46.204;5.220;2023-04-30T19:22:19;98618.59;;;19.33;45.30
48874;BME280;66155;46.204;5.220;2023-04-30T19:27:19;98624.63;;;19.25;45.54
48874;BME280;66155;46.204;5.220;2023-04-30T19:32:20;98629.91;;;19.25;45.66
48874;BME280;66155;46.204;5.220;2023-04-30T19:37:21;98633.47;;;18.89;47.08
48874;BME280;66155;46.204;5.220;2023-04-30T19:42:21;98631.78;;;18.48;48.41
48874;BME280;66155;46.204;5.220;2023-04-30T19:47:22;98635.13;;;18.39;48.67
48874;BME280;66155;46.204;5.220;2023-04-30T19:52:22;98634.59;;;18.51;47.94
48874;BME280;66155;46.204;5.220;2023-04-30T19:57:22;98632.72;;;18.52;48.65
48874;BME280;66155;46.204;5.220;2023-04-30T20:02:23;98637.47;;;18.41;48.78
48874;BME280;66155;46.204;5.220;2023-04-30T20:07:23;98630.03;;;18.43;48.43
48874;BME280;66155;46.204;5.220;2023-04-30T20:12:24;98633.91;;;18.46;48.76
48874;BME280;66155;46.204;5.220;2023-04-30T20:17:24;98635.94;;;18.26;50.04
48874;BME280;66155;46.204;5.220;2023-04-30T20:22:25;98647.31;;;17.85;51.07
48874;BME280;66155;46.204;5.220;2023-04-30T20:27:27;98644.22;;;17.69;52.09
48874;BME280;66155;46.204;5.220;2023-04-30T20:32:27;98653.22;;;17.54;52.43
48874;BME280;66155;46.204;5.220;2023-04-30T20:37:28;98644.25;;;17.55;52.21
48874;BME280;66155;46.204;5.220;2023-04-30T20:42:28;98647.75;;;17.51;52.59
48874;BME280;66155;46.204;5.220;2023-04-30T20:47:29;98656.91;;;17.53;52.30
48874;BME280;66155;46.204;5.220;2023-04-30T20:52:29;98649.41;;;17.60;52.39
48874;BME280;66155;46.204;5.220;2023-04-30T20:57:30;98651.72;;;17.48;53.33
48874;BME280;66155;46.204;5.220;2023-04-30T21:02:30;98650.34;;;17.23;55.09
48874;BME280;66155;46.204;5.220;2023-04-30T21:07:31;98642.44;;;16.95;55.35
48874;BME280;66155;46.204;5.220;2023-04-30T21:12:33;98650.41;;;16.71;56.27
48874;BME280;66155;46.204;5.220;2023-04-30T21:17:34;98653.38;;;16.50;57.46
48874;BME280;66155;46.204;5.220;2023-04-30T21:22:34;98652.44;;;16.22;59.02
48874;BME280;66155;46.204;5.220;2023-04-30T21:27:36;98647.81;;;16.14;58.60
48874;BME280;66155;46.204;5.220;2023-04-30T21:32:36;98647.31;;;16.12;58.20
48874;BME280;66155;46.204;5.220;2023-04-30T21:37:36;98641.28;;;16.11;58.52
48874;BME280;66155;46.204;5.220;2023-04-30T21:42:37;98646.81;;;16.10;58.46
48874;BME280;66155;46.204;5.220;2023-04-30T21:47:38;98652.44;;;16.03;59.30
48874;BME280;66155;46.204;5.220;2023-04-30T21:52:39;98642.97;;;16.02;58.84
48874;BME280;66155;46.204;5.220;2023-04-30T21:57:40;98645.91;;;16.01;58.86
48874;BME280;66155;46.204;5.220;2023-04-30T22:02:40;98639.78;;;16.05;58.62
48874;BME280;66155;46.204;5.220;2023-04-30T22:07:41;98643.63;;;16.13;58.27
48874;BME280;66155;46.204;5.220;2023-04-30T22:12:42;98638.56;;;16.16;58.55
48874;BME280;66155;46.204;5.220;2023-04-30T22:17:42;98633.09;;;16.13;58.44
48874;BME280;66155;46.204;5.220;2023-04-30T22:22:43;98629.13;;;16.15;58.50
48874;BME280;66155;46.204;5.220;2023-04-30T22:27:43;98632.75;;;16.20;58.22
48874;BME280;66155;46.204;5.220;2023-04-30T22:32:44;98635.94;;;16.16;58.33
48874;BME280;66155;46.204;5.220;2023-04-30T22:37:45;98632.69;;;16.25;58.47
48874;BME280;66155;46.204;5.220;2023-04-30T22:42:45;98645.34;;;16.42;57.96
48874;BME280;66155;46.204;5.220;2023-04-30T22:47:46;98630.47;;;16.32;58.66
48874;BME280;66155;46.204;5.220;2023-04-30T22:52:47;98637.44;;;16.42;58.13
48874;BME280;66155;46.204;5.220;2023-04-30T22:57:48;98634.00;;;16.41;57.87
48874;BME280;66155;46.204;5.220;2023-04-30T23:02:48;98637.59;;;16.31;58.28
48874;BME280;66155;46.204;5.220;2023-04-30T23:07:49;98637.44;;;16.23;58.98
48874;BME280;66155;46.204;5.220;2023-04-30T23:12:49;98632.41;;;16.26;58.69
48874;BME280;66155;46.204;5.220;2023-04-30T23:17:50;98633.03;;;16.37;58.32
48874;BME280;66155;46.204;5.220;2023-04-30T23:22:53;98635.88;;;16.41;58.42
48874;BME280;66155;46.204;5.220;2023-04-30T23:27:54;98640.06;;;16.42;58.70
48874;BME280;66155;46.204;5.220;2023-04-30T23:32:54;98635.66;;;16.37;58.85
48874;BME280;66155;46.204;5.220;2023-04-30T23:37:55;98636.72;;;16.36;59.34
48874;BME280;66155;46.204;5.220;2023-04-30T23:42:56;98636.28;;;16.29;59.41
48874;BME280;66155;46.204;5.220;2023-04-30T23:47:56;98639.22;;;16.27;59.35
48874;BME280;66155;46.204;5.220;2023-04-30T23:52:56;98629.53;;;16.04;60.23
48874;BME280;66155;46.204;5.220;2023-04-30T23:57:57;98640.97;;;16.13;60.28
